Time;durP1;ratioP1;P1;durP2;ratioP2;P2;SDS_P1;SDS_P2;PMS_P1;PMS_P2;Temp;Humidity;BMP_temperature;BMP_pressure;BME280_temperature;BME280_humidity;BME280_pressure;Samples;Min_cycle;Max_cycle;Signal;HPM_P1;HPM_P2
2020/12/30 00:00:11;;;;;;;9.50;5.33;;;;;;;;;;5008183;28;20280;-76
2020/12/30 00:02:37;;;;;;;11.43;4.87;;;;;;;;;;5008744;28;21831;-76
2020/12/30 00:05:05;;;;;;;9.47;4.03;;;;;;;;;;5009563;28;20398;-76
2020/12/30 00:07:33;;;;;;;9.10;5.03;;;;;;;;;;5022312;28;20368;-76
2020/12/30 00:09:59;;;;;;;7.20;2.90;;;;;;;;;;5016681;28;20260;-76
2020/12/30 00:12:28;;;;;;;7.67;4.03;;;;;;;;;;5013794;28;20303;-78
2020/12/30 00:14:58;;;;;;;7.20;3.20;;;;;;;;;;5001543;28;20343;-75
2020/12/30 00:17:24;;;;;;;6.07;3.00;;;;;;;;;;5003539;28;20269;-76
2020/12/30 00:19:51;;;;;;;7.97;3.60;;;;;;;;;;5025530;28;20956;-76
2020/12/30 00:22:17;;;;;;;5.30;2.70;;;;;;;;;;5002385;28;20265;-76
2020/12/30 00:24:44;;;;;;;7.80;3.77;;;;;;;;;;5004777;28;20284;-76
2020/12/30 00:27:10;;;;;;;4.87;2.40;;;;;;;;;;5016089;28;20264;-78
2020/12/30 00:29:36;;;;;;;6.30;2.57;;;;;;;;;;5016288;28;20274;-76
2020/12/30 00:32:03;;;;;;;8.50;2.60;;;;;;;;;;5015307;28;20271;-75
2020/12/30 00:34:29;;;;;;;4.33;2.40;;;;;;;;;;5007569;28;20284;-76
2020/12/30 00:36:55;;;;;;;5.63;2.50;;;;;;;;;;5016060;28;20291;-76
2020/12/30 00:39:21;;;;;;;6.90;3.13;;;;;;;;;;5016815;28;20357;-75
2020/12/30 00:41:54;;;;;;;4.93;2.87;;;;;;;;;;5022568;28;20273;-75
2020/12/30 00:44:20;;;;;;;5.50;2.90;;;;;;;;;;5011219;28;20272;-76
2020/12/30 00:46:50;;;;;;;6.37;2.90;;;;;;;;;;5007406;28;20030;-76
2020/12/30 00:49:16;;;;;;;7.63;3.40;;;;;;;;;;5015669;28;20657;-76
2020/12/30 00:51:43;;;;;;;10.77;4.90;;;;;;;;;;5016075;28;20268;-77
2020/12/30 00:54:09;;;;;;;12.17;5.23;;;;;;;;;;5022561;28;20268;-75
2020/12/30 00:56:35;;;;;;;12.90;5.93;;;;;;;;;;5007748;28;20369;-76
2020/12/30 00:59:04;;;;;;;7.60;4.13;;;;;;;;;;5021373;28;20312;-76
2020/12/30 01:01:30;;;;;;;7.00;3.93;;;;;;;;;;5014582;28;20999;-75
2020/12/30 01:03:56;;;;;;;7.87;4.37;;;;;;;;;;5015659;28;20348;-78
2020/12/30 01:06:22;;;;;;;7.90;4.07;;;;;;;;;;5015219;28;20256;-77
2020/12/30 01:08:48;;;;;;;8.47;4.47;;;;;;;;;;5020872;28;20275;-77
2020/12/30 01:11:14;;;;;;;8.70;4.30;;;;;;;;;;5014880;28;20280;-77
2020/12/30 01:13:43;;;;;;;8.07;4.53;;;;;;;;;;5012917;28;20272;-77
2020/12/30 01:16:11;;;;;;;9.27;4.60;;;;;;;;;;5016782;28;20280;-77
2020/12/30 01:18:37;;;;;;;8.33;4.57;;;;;;;;;;5025439;28;20301;-77
2020/12/30 01:21:03;;;;;;;7.70;4.87;;;;;;;;;;5015364;28;20260;-77
2020/12/30 01:23:31;;;;;;;8.23;4.90;;;;;;;;;;5014428;28;20261;-77
2020/12/30 01:25:57;;;;;;;8.73;5.63;;;;;;;;;;5008140;28;20264;-77
2020/12/30 01:28:23;;;;;;;9.10;5.43;;;;;;;;;;5024249;28;20771;-77
2020/12/30 01:30:49;;;;;;;10.90;4.63;;;;;;;;;;5042455;28;20283;-77
2020/12/30 01:33:15;;;;;;;13.37;5.67;;;;;;;;;;5025131;28;20322;-77
2020/12/30 01:35:41;;;;;;;8.00;4.77;;;;;;;;;;5018282;28;20284;-77
2020/12/30 01:38:07;;;;;;;9.87;5.10;;;;;;;;;;5029415;28;20617;-77
2020/12/30 01:40:33;;;;;;;8.63;5.50;;;;;;;;;;5018554;28;20319;-77
2020/12/30 01:42:59;;;;;;;8.70;4.37;;;;;;;;;;5022889;28;20720;-76
2020/12/30 01:45:25;;;;;;;7.80;4.20;;;;;;;;;;5007780;28;20268;-78
2020/12/30 01:47:51;;;;;;;8.63;5.40;;;;;;;;;;5025683;28;20264;-77
2020/12/30 01:50:18;;;;;;;7.50;4.53;;;;;;;;;;5015628;28;20290;-76
2020/12/30 01:52:44;;;;;;;7.43;4.07;;;;;;;;;;5021411;28;20319;-78
2020/12/30 01:55:11;;;;;;;8.07;3.90;;;;;;;;;;5014042;28;20304;-77
2020/12/30 01:57:38;;;;;;;9.13;4.63;;;;;;;;;;5032978;28;20273;-76
2020/12/30 02:00:05;;;;;;;7.67;4.13;;;;;;;;;;5028984;28;20356;-77
2020/12/30 02:02:31;;;;;;;10.63;4.37;;;;;;;;;;5009370;28;20323;-77
2020/12/30 02:04:57;;;;;;;8.57;3.73;;;;;;;;;;5036407;28;20268;-77
2020/12/30 02:07:24;;;;;;;7.93;4.90;;;;;;;;;;5009791;28;20319;-77
2020/12/30 02:09:51;;;;;;;7.73;4.00;;;;;;;;;;5006706;28;20261;-76
2020/12/30 02:12:17;;;;;;;7.57;4.10;;;;;;;;;;5029706;28;20385;-77
2020/12/30 02:14:44;;;;;;;8.37;4.80;;;;;;;;;;5012967;28;20292;-77
2020/12/30 02:17:14;;;;;;;7.60;4.30;;;;;;;;;;5012424;28;20277;-77
2020/12/30 02:19:40;;;;;;;8.90;4.23;;;;;;;;;;5015767;28;20292;-77
2020/12/30 02:22:07;;;;;;;13.30;4.70;;;;;;;;;;5012628;28;20281;-76
2020/12/30 02:24:37;;;;;;;7.37;4.23;;;;;;;;;;5006628;28;20261;-77
2020/12/30 02:27:04;;;;;;;8.40;4.43;;;;;;;;;;5017841;28;20332;-77
2020/12/30 02:29:31;;;;;;;7.17;4.57;;;;;;;;;;5005751;28;20265;-77
2020/12/30 02:31:57;;;;;;;7.67;4.10;;;;;;;;;;5007459;28;20268;-76
2020/12/30 02:34:23;;;;;;;7.97;4.60;;;;;;;;;;5007294;28;20335;-76
2020/12/30 02:36:49;;;;;;;9.10;4.50;;;;;;;;;;5008345;28;20277;-77
2020/12/30 02:39:16;;;;;;;7.07;3.97;;;;;;;;;;5009848;28;20686;-77
2020/12/30 02:41:42;;;;;;;7.57;4.30;;;;;;;;;;5011342;28;20704;-77
2020/12/30 02:44:08;;;;;;;8.47;4.63;;;;;;;;;;5025160;28;20280;-77
2020/12/30 02:46:34;;;;;;;10.80;4.20;;;;;;;;;;5018905;28;20260;-77
2020/12/30 02:49:00;;;;;;;8.63;5.00;;;;;;;;;;5011404;28;20291;-77
2020/12/30 02:51:27;;;;;;;9.33;5.10;;;;;;;;;;5003883;28;20277;-76
2020/12/30 02:53:53;;;;;;;7.73;4.60;;;;;;;;;;5015272;28;20280;-77
2020/12/30 02:56:20;;;;;;;10.47;4.87;;;;;;;;;;5009688;28;20276;-77
2020/12/30 02:58:46;;;;;;;11.63;5.40;;;;;;;;;;5010955;28;20932;-77
2020/12/30 03:01:13;;;;;;;11.83;5.67;;;;;;;;;;5016886;28;21081;-76
2020/12/30 03:03:40;;;;;;;14.13;6.47;;;;;;;;;;5007263;28;20268;-76
2020/12/30 03:06:06;;;;;;;11.73;6.83;;;;;;;;;;4999438;28;20281;-77
2020/12/30 03:08:32;;;;;;;11.43;6.57;;;;;;;;;;5009237;28;20261;-77
2020/12/30 03:10:58;;;;;;;18.43;7.30;;;;;;;;;;5008076;28;20261;-76
2020/12/30 03:13:24;;;;;;;14.77;7.97;;;;;;;;;;5008064;28;20265;-77
2020/12/30 03:15:50;;;;;;;12.30;7.33;;;;;;;;;;5008172;28;20268;-77
2020/12/30 03:18:16;;;;;;;11.67;6.53;;;;;;;;;;5041196;28;20304;-77
2020/12/30 03:20:43;;;;;;;13.37;7.67;;;;;;;;;;5020157;28;20400;-76
2020/12/30 03:23:09;;;;;;;13.73;7.20;;;;;;;;;;5008280;28;20272;-77
2020/12/30 03:25:35;;;;;;;11.63;6.53;;;;;;;;;;5006800;28;21039;-76
2020/12/30 03:28:02;;;;;;;10.90;6.20;;;;;;;;;;5007900;28;20265;-76
2020/12/30 03:30:28;;;;;;;13.60;6.40;;;;;;;;;;5009456;28;20321;-76
2020/12/30 03:32:54;;;;;;;15.87;7.20;;;;;;;;;;5002684;28;20361;-76
2020/12/30 03:35:24;;;;;;;13.63;7.67;;;;;;;;;;5007208;28;20276;-76
2020/12/30 03:37:51;;;;;;;15.73;7.93;;;;;;;;;;5006183;28;20264;-76
2020/12/30 03:40:17;;;;;;;13.97;8.27;;;;;;;;;;5000226;28;20289;-76
2020/12/30 03:42:43;;;;;;;20.57;8.77;;;;;;;;;;5008761;28;20277;-76
2020/12/30 03:45:09;;;;;;;16.70;9.33;;;;;;;;;;5006297;28;20326;-77
2020/12/30 03:47:35;;;;;;;16.17;8.83;;;;;;;;;;5024595;28;20973;-76
2020/12/30 03:50:01;;;;;;;17.43;8.33;;;;;;;;;;5002181;28;20273;-76
2020/12/30 03:52:27;;;;;;;14.33;7.53;;;;;;;;;;5007067;28;20281;-77
2020/12/30 03:54:53;;;;;;;14.23;7.00;;;;;;;;;;5007454;28;20751;-76
2020/12/30 03:57:19;;;;;;;13.80;7.10;;;;;;;;;;5006441;28;20277;-77
2020/12/30 03:59:45;;;;;;;12.77;6.67;;;;;;;;;;5000617;28;20300;-76
2020/12/30 04:02:11;;;;;;;14.23;6.90;;;;;;;;;;5000810;28;20303;-77
2020/12/30 04:04:37;;;;;;;13.33;7.80;;;;;;;;;;5000114;28;20285;-77
2020/12/30 04:07:03;;;;;;;16.43;9.63;;;;;;;;;;5006221;28;20740;-76
2020/12/30 04:09:29;;;;;;;12.03;7.50;;;;;;;;;;5006673;28;20269;-75
2020/12/30 04:11:56;;;;;;;10.73;6.57;;;;;;;;;;5005209;28;20312;-76
2020/12/30 04:14:22;;;;;;;11.67;6.30;;;;;;;;;;5002443;28;20312;-77
2020/12/30 04:16:48;;;;;;;9.33;5.23;;;;;;;;;;5021848;28;20260;-76
2020/12/30 04:19:14;;;;;;;14.20;6.63;;;;;;;;;;5025922;28;20646;-76
2020/12/30 04:21:40;;;;;;;11.40;5.73;;;;;;;;;;5010990;28;20312;-76
2020/12/30 04:24:06;;;;;;;11.87;6.40;;;;;;;;;;4997624;28;20277;-76
2020/12/30 04:26:32;;;;;;;14.23;7.10;;;;;;;;;;5005364;28;20336;-77
2020/12/30 04:28:58;;;;;;;30.73;14.90;;;;;;;;;;5005201;28;20352;-76
2020/12/30 04:31:24;;;;;;;22.47;11.67;;;;;;;;;;5005620;28;20366;-77
2020/12/30 04:33:50;;;;;;;120.40;53.63;;;;;;;;;;5005623;28;20328;-76
2020/12/30 04:36:17;;;;;;;18.30;9.67;;;;;;;;;;5021395;28;20331;-76
2020/12/30 04:38:43;;;;;;;26.20;14.33;;;;;;;;;;5001701;28;20702;-76
2020/12/30 04:41:13;;;;;;;18.03;10.27;;;;;;;;;;4993586;28;20277;-76
2020/12/30 04:43:41;;;;;;;18.23;9.30;;;;;;;;;;4988649;28;20954;-76
2020/12/30 04:46:07;;;;;;;19.50;9.77;;;;;;;;;;4995659;28;20451;-76
2020/12/30 04:48:34;;;;;;;17.20;10.47;;;;;;;;;;5008139;28;20307;-77
2020/12/30 04:51:01;;;;;;;17.57;10.20;;;;;;;;;;5006993;28;20273;-76
2020/12/30 04:53:27;;;;;;;18.53;9.73;;;;;;;;;;5007949;28;20363;-76
2020/12/30 04:55:58;;;;;;;15.80;8.83;;;;;;;;;;5011473;28;20314;-77
2020/12/30 04:58:26;;;;;;;12.20;6.90;;;;;;;;;;5028204;28;20279;-76
2020/12/30 05:00:53;;;;;;;15.47;6.83;;;;;;;;;;4994044;28;20356;-77
2020/12/30 05:03:22;;;;;;;9.60;4.97;;;;;;;;;;5008308;28;20252;-77
2020/12/30 05:05:48;;;;;;;9.00;5.00;;;;;;;;;;5009419;28;20608;-77
2020/12/30 05:08:15;;;;;;;9.43;4.70;;;;;;;;;;4990946;28;20705;-76
2020/12/30 05:10:45;;;;;;;10.03;4.83;;;;;;;;;;5015575;28;20264;-77
2020/12/30 05:13:11;;;;;;;9.37;4.33;;;;;;;;;;4992645;28;20279;-76
2020/12/30 05:15:37;;;;;;;6.60;3.70;;;;;;;;;;4987873;28;20613;-77
2020/12/30 05:18:04;;;;;;;6.50;3.43;;;;;;;;;;5012386;28;20323;-77
2020/12/30 05:20:35;;;;;;;7.23;3.97;;;;;;;;;;5004494;28;20720;-76
2020/12/30 05:23:05;;;;;;;7.97;4.17;;;;;;;;;;4988599;28;20265;-77
2020/12/30 05:25:34;;;;;;;6.50;3.57;;;;;;;;;;4988533;28;21004;-76
2020/12/30 05:28:02;;;;;;;10.70;4.57;;;;;;;;;;4987398;28;20689;-77
2020/12/30 05:30:30;;;;;;;9.07;5.17;;;;;;;;;;5001039;28;20984;-76
2020/12/30 05:32:56;;;;;;;9.57;4.73;;;;;;;;;;5007312;28;20268;-76
2020/12/30 05:35:22;;;;;;;10.47;4.33;;;;;;;;;;5017936;28;20791;-77
2020/12/30 05:37:49;;;;;;;9.90;5.37;;;;;;;;;;5026002;28;20268;-77
2020/12/30 05:40:25;;;;;;;11.80;4.90;;;;;;;;;;4995689;28;20293;-77
2020/12/30 05:42:52;;;;;;;15.07;6.80;;;;;;;;;;5008591;28;20694;-77
2020/12/30 05:45:22;;;;;;;10.37;5.80;;;;;;;;;;5007435;28;20453;-77
2020/12/30 05:47:48;;;;;;;12.27;5.63;;;;;;;;;;5005802;28;20411;-77
2020/12/30 05:50:24;;;;;;;11.00;5.67;;;;;;;;;;5003584;28;20709;-76
2020/12/30 05:52:50;;;;;;;10.53;6.27;;;;;;;;;;5001483;28;20327;-76
2020/12/30 05:55:16;;;;;;;13.30;6.83;;;;;;;;;;5008317;28;20268;-75
2020/12/30 05:57:43;;;;;;;13.33;7.00;;;;;;;;;;5002393;28;20372;-77
2020/12/30 06:00:13;;;;;;;17.87;8.57;;;;;;;;;;5004967;28;20292;-77
2020/12/30 06:02:40;;;;;;;21.83;12.00;;;;;;;;;;5007778;28;20253;-77
2020/12/30 06:05:15;;;;;;;23.33;13.00;;;;;;;;;;5005747;28;20281;-75
2020/12/30 06:07:42;;;;;;;16.30;8.93;;;;;;;;;;5007740;28;20264;-76
2020/12/30 06:10:09;;;;;;;16.07;7.63;;;;;;;;;;5008687;28;20265;-75
2020/12/30 06:12:38;;;;;;;12.23;7.43;;;;;;;;;;5002775;28;20284;-77
2020/12/30 06:15:05;;;;;;;10.47;5.93;;;;;;;;;;5009322;28;20277;-78
2020/12/30 06:17:32;;;;;;;9.67;5.37;;;;;;;;;;5022246;28;20276;-79
2020/12/30 06:19:59;;;;;;;10.70;5.87;;;;;;;;;;5028139;28;20346;-77
2020/12/30 06:22:25;;;;;;;12.03;6.63;;;;;;;;;;5003899;28;20289;-77
2020/12/30 06:24:52;;;;;;;12.10;6.10;;;;;;;;;;5008302;28;20296;-76
2020/12/30 06:27:26;;;;;;;10.90;6.40;;;;;;;;;;5004378;28;20655;-76
2020/12/30 06:29:56;;;;;;;16.27;8.87;;;;;;;;;;5005812;28;20307;-76
2020/12/30 06:32:29;;;;;;;22.37;12.83;;;;;;;;;;5006702;28;20271;-77
2020/12/30 06:34:56;;;;;;;16.88;11.43;;;;;;;;;;5005673;28;20273;-76
2020/12/30 06:37:26;;;;;;;14.20;7.30;;;;;;;;;;5038852;28;20026;-77
2020/12/30 06:40:11;;;;;;;10.20;5.27;;;;;;;;;;5030278;28;20384;-77
2020/12/30 06:42:38;;;;;;;10.33;5.10;;;;;;;;;;5008409;28;20257;-77
2020/12/30 06:45:04;;;;;;;9.73;5.60;;;;;;;;;;5029013;28;20268;-76
2020/12/30 06:47:50;;;;;;;12.50;5.57;;;;;;;;;;5006483;28;20884;-76
2020/12/30 06:50:16;;;;;;;12.27;5.53;;;;;;;;;;5025047;28;20467;-76
2020/12/30 06:52:42;;;;;;;9.67;5.07;;;;;;;;;;5030829;28;20307;-76
2020/12/30 06:55:08;;;;;;;8.77;4.77;;;;;;;;;;5006554;28;20318;-76
2020/12/30 06:57:38;;;;;;;9.80;6.03;;;;;;;;;;5005016;28;20273;-75
2020/12/30 07:00:22;;;;;;;14.33;6.43;;;;;;;;;;5007479;28;20285;-77
2020/12/30 07:03:07;;;;;;;12.30;5.50;;;;;;;;;;5006767;28;20312;-76
2020/12/30 07:05:35;;;;;;;7.73;5.07;;;;;;;;;;5038955;28;20249;-76
2020/12/30 07:08:01;;;;;;;7.70;4.33;;;;;;;;;;5007453;28;20249;-76
2020/12/30 07:10:27;;;;;;;9.80;4.17;;;;;;;;;;5006666;28;20679;-77
2020/12/30 07:12:53;;;;;;;8.93;4.37;;;;;;;;;;5010831;28;20267;-76
2020/12/30 07:15:28;;;;;;;10.27;4.27;;;;;;;;;;5026108;28;20299;-77
2020/12/30 07:17:55;;;;;;;8.53;4.37;;;;;;;;;;5009150;28;20707;-77
2020/12/30 07:20:24;;;;;;;10.77;6.23;;;;;;;;;;4993568;28;20285;-77
2020/12/30 07:22:50;;;;;;;9.87;5.60;;;;;;;;;;5017586;28;20256;-77
2020/12/30 07:25:17;;;;;;;8.07;4.67;;;;;;;;;;5028400;28;20643;-77
2020/12/30 07:27:43;;;;;;;6.60;3.90;;;;;;;;;;5020529;28;20272;-77
2020/12/30 07:30:10;;;;;;;8.73;3.70;;;;;;;;;;5027085;28;20260;-77
2020/12/30 07:32:36;;;;;;;9.00;3.70;;;;;;;;;;5027422;28;20454;-77
2020/12/30 07:35:07;;;;;;;6.87;3.60;;;;;;;;;;5012336;28;20368;-78
2020/12/30 07:37:33;;;;;;;6.57;4.07;;;;;;;;;;5007111;28;20303;-76
2020/12/30 07:39:59;;;;;;;8.83;3.20;;;;;;;;;;5005923;28;20281;-78
2020/12/30 07:42:28;;;;;;;5.43;2.70;;;;;;;;;;5018792;28;20332;-78
2020/12/30 07:44:55;;;;;;;6.30;3.37;;;;;;;;;;5021315;28;20372;-77
2020/12/30 07:47:22;;;;;;;9.07;3.70;;;;;;;;;;5006977;28;20281;-76
2020/12/30 07:49:48;;;;;;;7.03;3.73;;;;;;;;;;5004804;28;20277;-77
2020/12/30 07:52:15;;;;;;;7.37;3.00;;;;;;;;;;4993339;28;20281;-78
2020/12/30 07:54:41;;;;;;;9.20;3.40;;;;;;;;;;5005861;28;20277;-77
2020/12/30 07:57:13;;;;;;;9.07;3.53;;;;;;;;;;5007103;28;20306;-77
2020/12/30 07:59:41;;;;;;;7.95;3.70;;;;;;;;;;5006932;28;20317;-77
2020/12/30 08:02:14;;;;;;;6.10;2.33;;;;;;;;;;5027287;28;20030;-77
2020/12/30 08:04:41;;;;;;;6.75;3.35;;;;;;;;;;4997021;28;20767;-78
2020/12/30 08:07:16;;;;;;;5.40;2.37;;;;;;;;;;5006802;28;20148;-77
2020/12/30 08:09:44;;;;;;;6.57;3.07;;;;;;;;;;5007808;28;20352;-77
2020/12/30 08:12:14;;;;;;;3.87;2.20;;;;;;;;;;5006070;28;20034;-77
2020/12/30 08:14:41;;;;;;;2.07;1.17;;;;;;;;;;5009512;28;20366;-78
2020/12/30 08:17:08;;;;;;;6.10;1.70;;;;;;;;;;5008799;28;20041;-78
2020/12/30 08:19:35;;;;;;;5.30;2.13;;;;;;;;;;5044977;28;20109;-78
2020/12/30 08:22:02;;;;;;;4.47;1.33;;;;;;;;;;5041227;28;20112;-78
2020/12/30 08:24:29;;;;;;;3.40;1.63;;;;;;;;;;5009547;28;20076;-78
2020/12/30 08:26:55;;;;;;;3.53;1.60;;;;;;;;;;5008980;28;20419;-77
2020/12/30 08:29:21;;;;;;;3.77;1.70;;;;;;;;;;5010629;28;20498;-77
2020/12/30 08:31:50;;;;;;;3.73;1.77;;;;;;;;;;4991576;28;20022;-78
2020/12/30 08:34:17;;;;;;;5.07;2.10;;;;;;;;;;5009648;28;20481;-77
2020/12/30 08:36:46;;;;;;;5.40;2.13;;;;;;;;;;4997093;28;20045;-78
2020/12/30 08:39:16;;;;;;;2.73;1.43;;;;;;;;;;5000789;28;20030;-78
2020/12/30 08:41:51;;;;;;;3.95;1.92;;;;;;;;;;5042913;28;20034;-77
2020/12/30 08:44:19;;;;;;;3.92;1.90;;;;;;;;;;5036410;28;20037;-78
2020/12/30 08:46:48;;;;;;;3.88;2.22;;;;;;;;;;5010958;28;20026;-78
2020/12/30 08:49:15;;;;;;;2.97;1.80;;;;;;;;;;5010281;28;20084;-78
2020/12/30 08:51:41;;;;;;;4.30;2.30;;;;;;;;;;5009076;28;20175;-78
2020/12/30 08:54:18;;;;;;;4.82;2.10;;;;;;;;;;5010458;28;20048;-78
2020/12/30 08:56:45;;;;;;;3.95;1.73;;;;;;;;;;4991570;28;20112;-78
2020/12/30 08:59:21;;;;;;;4.95;2.20;;;;;;;;;;4991368;28;20057;-78
2020/12/30 09:01:47;;;;;;;4.63;2.00;;;;;;;;;;5010873;28;20029;-78
2020/12/30 09:04:13;;;;;;;4.65;2.42;;;;;;;;;;5010629;28;20120;-78
2020/12/30 09:06:40;;;;;;;5.57;1.70;;;;;;;;;;5010483;28;20460;-78
2020/12/30 09:09:13;;;;;;;4.38;2.10;;;;;;;;;;5012651;28;20129;-78
2020/12/30 09:11:45;;;;;;;4.05;2.25;;;;;;;;;;5012277;28;20484;-78
2020/12/30 09:14:21;;;;;;;4.18;2.22;;;;;;;;;;5009901;28;20029;-78
2020/12/30 09:17:13;;;;;;;5.82;2.20;;;;;;;;;;5010814;28;20032;-78
2020/12/30 09:19:39;;;;;;;5.07;2.45;;;;;;;;;;4998982;28;20045;-80
2020/12/30 09:22:08;;;;;;;5.57;2.95;;;;;;;;;;5004226;28;20091;-78
2020/12/30 09:24:44;;;;;;;3.42;1.80;;;;;;;;;;5009002;28;20033;-79
2020/12/30 09:27:32;;;;;;;3.80;1.60;;;;;;;;;;5008854;28;20120;-78
2020/12/30 09:30:07;;;;;;;4.07;1.90;;;;;;;;;;5023392;28;20039;-78
2020/12/30 09:32:33;;;;;;;3.53;1.40;;;;;;;;;;5014553;28;20088;-78
2020/12/30 09:35:03;;;;;;;4.18;1.77;;;;;;;;;;5017896;28;20036;-79
2020/12/30 09:37:29;;;;;;;4.32;1.70;;;;;;;;;;5010786;28;20042;-79
2020/12/30 09:40:09;;;;;;;3.78;1.95;;;;;;;;;;4998037;28;20025;-80
2020/12/30 09:42:35;;;;;;;4.30;2.00;;;;;;;;;;5031658;28;20021;-80
2020/12/30 09:45:02;;;;;;;4.35;1.65;;;;;;;;;;5017950;28;20109;-79
2020/12/30 09:47:28;;;;;;;3.50;1.60;;;;;;;;;;5012006;28;20123;-79
2020/12/30 09:49:54;;;;;;;3.85;1.60;;;;;;;;;;5022576;28;20073;-81
2020/12/30 09:52:20;;;;;;;3.90;2.13;;;;;;;;;;4999829;28;20029;-80
2020/12/30 09:54:47;;;;;;;5.40;2.28;;;;;;;;;;5001051;28;20044;-80
2020/12/30 09:57:13;;;;;;;4.10;1.90;;;;;;;;;;5010055;28;20828;-80
2020/12/30 09:59:40;;;;;;;2.50;1.30;;;;;;;;;;5040029;28;20100;-82
2020/12/30 10:02:06;;;;;;;3.40;1.55;;;;;;;;;;5011200;28;20564;-81
2020/12/30 10:04:32;;;;;;;2.85;1.50;;;;;;;;;;5022123;28;20041;-80
2020/12/30 10:06:58;;;;;;;3.80;1.80;;;;;;;;;;5027932;28;20034;-80
2020/12/30 10:09:24;;;;;;;5.10;2.10;;;;;;;;;;5010910;28;20021;-79
2020/12/30 10:11:51;;;;;;;6.22;2.88;;;;;;;;;;4998768;28;20010;-80
2020/12/30 10:14:20;;;;;;;4.18;2.30;;;;;;;;;;5010141;28;20026;-80
2020/12/30 10:16:48;;;;;;;5.15;2.33;;;;;;;;;;5011696;28;20053;-80
2020/12/30 10:19:14;;;;;;;4.80;2.20;;;;;;;;;;5021344;28;20089;-79
2020/12/30 10:21:40;;;;;;;4.07;2.58;;;;;;;;;;5032508;28;20034;-80
2020/12/30 10:24:06;;;;;;;3.20;1.65;;;;;;;;;;5030661;28;20666;-80
2020/12/30 10:26:34;;;;;;;3.92;2.03;;;;;;;;;;5009972;28;20028;-76
2020/12/30 10:29:01;;;;;;;4.38;1.40;;;;;;;;;;5003422;28;20505;-79
2020/12/30 10:31:27;;;;;;;1.67;1.02;;;;;;;;;;5029090;28;20061;-78
2020/12/30 10:33:54;;;;;;;5.13;1.50;;;;;;;;;;5034262;28;20061;-77
2020/12/30 10:36:21;;;;;;;4.15;1.55;;;;;;;;;;5011316;28;20027;-78
2020/12/30 10:38:47;;;;;;;4.57;1.88;;;;;;;;;;5000202;28;20350;-78
2020/12/30 10:41:17;;;;;;;5.03;1.65;;;;;;;;;;5006127;28;20072;-78
2020/12/30 10:43:44;;;;;;;4.38;1.70;;;;;;;;;;5007690;28;20068;-77
2020/12/30 10:46:14;;;;;;;3.80;1.63;;;;;;;;;;5009595;28;20092;-78
2020/12/30 10:48:44;;;;;;;5.40;1.35;;;;;;;;;;5004922;28;20030;-78
2020/12/30 10:51:11;;;;;;;4.35;1.98;;;;;;;;;;5007741;28;20033;-77
2020/12/30 10:53:37;;;;;;;14.47;8.60;;;;;;;;;;5002365;28;20026;-76
2020/12/30 10:56:04;;;;;;;6.73;3.87;;;;;;;;;;5005693;28;20026;-77
2020/12/30 10:58:30;;;;;;;5.30;2.43;;;;;;;;;;5008192;28;20032;-77
2020/12/30 11:00:57;;;;;;;4.83;1.90;;;;;;;;;;5015626;28;20058;-76
2020/12/30 11:03:23;;;;;;;5.13;1.80;;;;;;;;;;5009483;28;20527;-77
2020/12/30 11:05:50;;;;;;;7.20;2.17;;;;;;;;;;5007892;28;20026;-77
2020/12/30 11:08:17;;;;;;;5.07;1.90;;;;;;;;;;5025890;28;20026;-76
2020/12/30 11:10:43;;;;;;;6.23;2.40;;;;;;;;;;5018154;28;20045;-78
2020/12/30 11:13:09;;;;;;;6.40;2.40;;;;;;;;;;5018547;28;20032;-78
2020/12/30 11:15:35;;;;;;;6.60;2.90;;;;;;;;;;5037657;28;20021;-77
2020/12/30 11:18:02;;;;;;;9.63;3.70;;;;;;;;;;5017270;28;20025;-77
2020/12/30 11:20:29;;;;;;;7.83;2.80;;;;;;;;;;5003199;28;20046;-78
2020/12/30 11:22:57;;;;;;;4.07;1.60;;;;;;;;;;5022347;28;20018;-78
2020/12/30 11:25:23;;;;;;;4.80;2.23;;;;;;;;;;5023371;28;20054;-77
2020/12/30 11:27:50;;;;;;;7.68;3.17;;;;;;;;;;5001175;28;20018;-77
2020/12/30 11:30:16;;;;;;;6.53;3.15;;;;;;;;;;5024406;28;20195;-78
2020/12/30 11:32:43;;;;;;;6.65;2.83;;;;;;;;;;5018838;28;20031;-79
2020/12/30 11:35:10;;;;;;;6.90;3.75;;;;;;;;;;5026912;28;20496;-79
2020/12/30 11:37:36;;;;;;;6.38;2.88;;;;;;;;;;5017054;28;20033;-79
2020/12/30 11:40:03;;;;;;;8.07;3.65;;;;;;;;;;5036620;28;20026;-76
2020/12/30 11:42:29;;;;;;;5.10;2.03;;;;;;;;;;5023535;28;20500;-78
2020/12/30 11:44:55;;;;;;;4.60;2.00;;;;;;;;;;5030749;28;20033;-78
2020/12/30 11:47:23;;;;;;;3.45;1.73;;;;;;;;;;5012171;28;20181;-78
2020/12/30 11:49:49;;;;;;;3.63;1.67;;;;;;;;;;5004841;28;20058;-79
2020/12/30 11:52:15;;;;;;;4.07;1.50;;;;;;;;;;4999519;28;20057;-78
2020/12/30 11:54:41;;;;;;;4.95;1.85;;;;;;;;;;5001024;28;20120;-77
2020/12/30 11:57:08;;;;;;;6.45;2.00;;;;;;;;;;5003074;28;20083;-77
2020/12/30 11:59:34;;;;;;;4.82;1.90;;;;;;;;;;5007945;28;20117;-77
2020/12/30 12:02:00;;;;;;;6.55;2.20;;;;;;;;;;5037312;28;20048;-78
2020/12/30 12:04:26;;;;;;;5.43;2.72;;;;;;;;;;5022025;28;20719;-78
2020/12/30 12:06:56;;;;;;;4.43;2.07;;;;;;;;;;5005991;28;20072;-77
2020/12/30 12:09:23;;;;;;;9.77;4.53;;;;;;;;;;5007330;28;20033;-78
2020/12/30 12:11:49;;;;;;;8.67;1.90;;;;;;;;;;5006758;28;20045;-78
2020/12/30 12:14:15;;;;;;;9.30;3.30;;;;;;;;;;5000159;28;20034;-77
2020/12/30 12:16:41;;;;;;;6.73;1.90;;;;;;;;;;4985988;28;20481;-78
2020/12/30 12:19:07;;;;;;;4.93;2.53;;;;;;;;;;5000409;28;20076;-78
2020/12/30 12:21:33;;;;;;;6.17;1.70;;;;;;;;;;4997473;28;20026;-78
2020/12/30 12:23:59;;;;;;;5.03;1.70;;;;;;;;;;5004666;28;20025;-77
2020/12/30 12:26:28;;;;;;;7.17;1.47;;;;;;;;;;5004753;28;20401;-78
2020/12/30 12:28:54;;;;;;;5.93;2.00;;;;;;;;;;4998450;28;20393;-78
2020/12/30 12:31:20;;;;;;;7.27;1.67;;;;;;;;;;4998588;28;20041;-76
2020/12/30 12:33:46;;;;;;;3.70;1.60;;;;;;;;;;4989321;28;20073;-78
2020/12/30 12:36:13;;;;;;;5.90;2.80;;;;;;;;;;5025195;28;20029;-79
2020/12/30 12:38:40;;;;;;;4.80;1.50;;;;;;;;;;5006317;28;20125;-77
2020/12/30 12:41:06;;;;;;;7.80;1.83;;;;;;;;;;5017891;28;20250;-78
2020/12/30 12:43:32;;;;;;;4.87;1.70;;;;;;;;;;5014391;28;20026;-78
2020/12/30 12:45:58;;;;;;;3.07;1.10;;;;;;;;;;5049959;28;20060;-78
2020/12/30 12:48:24;;;;;;;4.70;1.40;;;;;;;;;;5027463;28;20025;-77
2020/12/30 12:50:50;;;;;;;4.40;1.37;;;;;;;;;;5007908;28;20034;-77
2020/12/30 12:53:17;;;;;;;4.07;1.60;;;;;;;;;;5033704;28;20095;-77
2020/12/30 12:55:43;;;;;;;5.50;2.13;;;;;;;;;;5012870;28;20037;-77
2020/12/30 12:58:09;;;;;;;6.83;2.00;;;;;;;;;;5037951;28;20768;-78
2020/12/30 13:00:35;;;;;;;6.03;2.83;;;;;;;;;;5027413;28;20029;-77
2020/12/30 13:03:02;;;;;;;9.43;2.17;;;;;;;;;;5011821;28;20034;-77
2020/12/30 13:05:28;;;;;;;4.60;2.07;;;;;;;;;;5013525;28;20038;-78
2020/12/30 13:07:54;;;;;;;6.40;2.40;;;;;;;;;;5009377;28;20060;-76
2020/12/30 13:10:20;;;;;;;6.30;2.27;;;;;;;;;;5007947;28;20030;-76
2020/12/30 13:12:46;;;;;;;6.13;2.83;;;;;;;;;;5008207;28;20033;-76
2020/12/30 13:15:12;;;;;;;8.07;2.70;;;;;;;;;;5008303;28;20030;-76
2020/12/30 13:17:39;;;;;;;4.10;1.40;;;;;;;;;;5016885;28;20110;-76
2020/12/30 13:20:05;;;;;;;3.27;1.40;;;;;;;;;;5019525;28;20021;-76
2020/12/30 13:22:31;;;;;;;4.90;1.50;;;;;;;;;;5028648;28;20029;-76
2020/12/30 13:24:57;;;;;;;4.33;1.50;;;;;;;;;;5016709;28;20080;-76
2020/12/30 13:27:23;;;;;;;3.83;1.57;;;;;;;;;;5000925;28;20031;-76
2020/12/30 13:29:51;;;;;;;5.30;1.40;;;;;;;;;;5014181;28;20485;-76
2020/12/30 13:32:17;;;;;;;4.23;1.30;;;;;;;;;;5008236;28;20061;-76
2020/12/30 13:34:43;;;;;;;8.97;2.67;;;;;;;;;;5014310;28;20080;-76
2020/12/30 13:37:09;;;;;;;5.47;1.50;;;;;;;;;;5011608;28;20037;-76
2020/12/30 13:39:37;;;;;;;6.53;1.73;;;;;;;;;;5013355;28;20026;-78
2020/12/30 13:42:03;;;;;;;3.17;1.07;;;;;;;;;;5002214;28;20037;-77
2020/12/30 13:44:29;;;;;;;3.77;1.27;;;;;;;;;;5038835;28;20030;-79
2020/12/30 13:46:55;;;;;;;4.33;1.50;;;;;;;;;;5013816;28;20047;-78
2020/12/30 13:49:21;;;;;;;3.50;1.13;;;;;;;;;;5019089;28;20034;-78
2020/12/30 13:51:49;;;;;;;6.03;1.60;;;;;;;;;;5009640;28;20057;-78
2020/12/30 13:54:15;;;;;;;4.33;1.23;;;;;;;;;;5010191;28;20068;-79
2020/12/30 13:56:41;;;;;;;3.73;1.30;;;;;;;;;;5009850;28;20057;-79
2020/12/30 13:59:07;;;;;;;6.37;1.40;;;;;;;;;;5009032;28;20096;-79
2020/12/30 14:01:34;;;;;;;3.93;1.17;;;;;;;;;;5007824;28;20088;-79
2020/12/30 14:04:00;;;;;;;5.20;1.87;;;;;;;;;;5043081;28;20030;-78
2020/12/30 14:06:26;;;;;;;4.07;1.70;;;;;;;;;;5041028;28;20037;-78
2020/12/30 14:08:52;;;;;;;3.20;1.07;;;;;;;;;;5009055;28;20038;-79
2020/12/30 14:11:19;;;;;;;6.13;2.97;;;;;;;;;;5009423;28;20022;-79
2020/12/30 14:13:46;;;;;;;5.27;2.30;;;;;;;;;;5005176;28;20030;-78
2020/12/30 14:16:13;;;;;;;4.97;2.30;;;;;;;;;;5010345;28;20319;-77
2020/12/30 14:18:39;;;;;;;2.80;1.50;;;;;;;;;;5009422;28;20257;-78
2020/12/30 14:21:05;;;;;;;4.03;1.80;;;;;;;;;;5022959;28;20281;-80
2020/12/30 14:23:31;;;;;;;6.83;1.80;;;;;;;;;;5016160;28;20284;-77
2020/12/30 14:25:58;;;;;;;2.10;1.10;;;;;;;;;;5010546;28;20340;-80
2020/12/30 14:28:24;;;;;;;3.10;1.23;;;;;;;;;;5046249;28;20029;-78
2020/12/30 14:30:50;;;;;;;4.83;1.23;;;;;;;;;;5034823;28;20033;-80
2020/12/30 14:33:16;;;;;;;3.73;1.23;;;;;;;;;;5015357;28;20045;-79
2020/12/30 14:35:43;;;;;;;3.13;1.50;;;;;;;;;;5018149;28;20037;-79
2020/12/30 14:38:10;;;;;;;4.07;1.70;;;;;;;;;;5032875;28;20021;-79